createdAt,value
2023-02-19T00:02:01.378Z,9.28
2023-02-19T00:07:05.689Z,9.26
2023-02-19T00:12:08.618Z,9.21
2023-02-19T00:17:11.482Z,9.27
2023-02-19T00:22:15.790Z,9.23
2023-02-19T00:27:18.685Z,9.21
2023-02-19T00:32:21.570Z,9.18
2023-02-19T00:37:25.853Z,9.20
2023-02-19T00:42:28.731Z,9.13
2023-02-19T00:47:31.677Z,9.14
2023-02-19T00:52:35.964Z,9.06
2023-02-19T00:57:38.854Z,8.98
2023-02-19T01:02:41.838Z,8.96
2023-02-19T01:07:46.097Z,8.96
2023-02-19T01:12:48.968Z,8.99
2023-02-19T01:17:51.827Z,8.99
2023-02-19T01:22:56.226Z,8.98
2023-02-19T01:27:59.199Z,8.96
2023-02-19T01:33:02.114Z,8.89
2023-02-19T01:38:08.290Z,8.88
2023-02-19T01:43:17.140Z,8.76
2023-02-19T01:48:23.819Z,8.79
2023-02-19T01:53:32.636Z,8.74
2023-02-19T01:58:37.802Z,8.75
2023-02-19T02:03:43.167Z,8.75
2023-02-19T02:09:05.392Z,8.66
2023-02-19T02:14:08.441Z,8.60
2023-02-19T02:19:28.216Z,8.67
2023-02-19T02:25:13.291Z,8.50
2023-02-19T02:30:39.533Z,8.59
2023-02-19T02:35:47.325Z,8.47
2023-02-19T02:40:53.277Z,8.53
2023-02-19T02:45:57.808Z,8.48
2023-02-19T02:51:12.560Z,8.55
2023-02-19T02:56:22.919Z,8.47
2023-02-19T03:01:51.030Z,8.42
2023-02-19T03:06:56.136Z,8.43
2023-02-19T03:12:36.165Z,8.34
2023-02-19T03:18:01.756Z,8.30
2023-02-19T03:23:07.404Z,8.29
2023-02-19T03:28:13.769Z,8.34
2023-02-19T03:33:23.671Z,8.32
2023-02-19T03:38:34.657Z,8.27
2023-02-19T03:43:41.751Z,8.25
2023-02-19T03:48:52.445Z,8.15
2023-02-19T03:54:06.899Z,8.12
2023-02-19T03:59:15.761Z,8.06
2023-02-19T04:04:26.292Z,7.90
2023-02-19T04:09:37.164Z,7.89
2023-02-19T04:14:50.270Z,7.67
2023-02-19T04:19:56.064Z,7.93
2023-02-19T04:24:59.197Z,7.98
2023-02-19T04:30:02.196Z,8.06
2023-02-19T04:35:07.139Z,8.10
2023-02-19T04:40:11.163Z,8.14
2023-02-19T04:45:14.092Z,8.13
2023-02-19T04:50:18.642Z,8.25
2023-02-19T04:55:21.626Z,8.48
2023-02-19T05:00:24.623Z,8.41
2023-02-19T05:05:28.916Z,8.42
2023-02-19T05:10:31.781Z,8.53
2023-02-19T05:15:34.773Z,8.51
2023-02-19T05:20:39.273Z,8.35
2023-02-19T05:25:42.182Z,8.35
2023-02-19T05:30:45.931Z,8.08
2023-02-19T05:35:51.726Z,8.05
2023-02-19T05:40:54.662Z,7.97
2023-02-19T05:45:59.445Z,8.00
2023-02-19T05:51:04.613Z,7.91
2023-02-19T05:56:25.009Z,7.90
2023-02-19T06:01:29.495Z,8.06
2023-02-19T06:06:33.867Z,7.89
2023-02-19T06:11:37.379Z,7.95
2023-02-19T06:16:40.279Z,7.88
2023-02-19T06:21:44.565Z,8.11
2023-02-19T06:26:47.634Z,7.87
2023-02-19T06:31:50.640Z,7.97
2023-02-19T06:36:55.020Z,8.02
2023-02-19T06:41:57.983Z,8.07
2023-02-19T06:47:00.909Z,8.02
2023-02-19T06:52:05.534Z,7.83
2023-02-19T06:57:10.691Z,7.88
2023-02-19T07:02:13.962Z,7.91
2023-02-19T07:07:18.226Z,7.87
2023-02-19T07:12:21.138Z,7.82
2023-02-19T07:17:24.097Z,7.86
2023-02-19T07:22:28.460Z,7.83
2023-02-19T07:27:31.524Z,7.89
2023-02-19T07:32:34.628Z,7.59
2023-02-19T07:37:39.108Z,7.48
2023-02-19T07:42:42.126Z,7.49
2023-02-19T07:47:45.742Z,6.80
2023-02-19T07:52:50.070Z,6.48
2023-02-19T07:57:53.116Z,6.52
2023-02-19T08:03:02.156Z,6.15
2023-02-19T08:08:07.803Z,5.98
2023-02-19T08:13:23.445Z,5.52
2023-02-19T08:18:28.909Z,5.49
2023-02-19T08:23:33.282Z,5.37
2023-02-19T08:28:36.629Z,5.45
2023-02-19T08:33:39.776Z,5.22
2023-02-19T08:38:44.916Z,5.07
2023-02-19T08:43:47.875Z,5.12
2023-02-19T08:48:51.142Z,5.05
2023-02-19T08:53:55.419Z,5.20
2023-02-19T08:58:58.325Z,4.90
2023-02-19T09:04:01.322Z,5.20
2023-02-19T09:09:06.106Z,4.62
2023-02-19T09:14:09.677Z,4.48
2023-02-19T09:19:12.601Z,4.34
2023-02-19T09:24:16.891Z,4.14
2023-02-19T09:29:20.407Z,3.81
2023-02-19T09:34:23.312Z,3.73
2023-02-19T09:39:28.080Z,3.42
2023-02-19T09:44:34.263Z,3.55
2023-02-19T09:49:40.645Z,3.58
2023-02-19T09:54:47.558Z,3.55
2023-02-19T09:59:53.649Z,3.28
2023-02-19T10:04:56.684Z,3.43
2023-02-19T10:10:11.386Z,4.10
2023-02-19T10:15:21.592Z,3.79
2023-02-19T10:20:27.980Z,3.98
2023-02-19T10:25:34.029Z,5.15
2023-02-19T10:30:37.530Z,4.67
2023-02-19T10:35:56.531Z,5.03
2023-02-19T10:41:07.658Z,4.59
2023-02-19T10:46:18.640Z,4.32
2023-02-19T10:51:25.387Z,4.23
2023-02-19T10:56:31.505Z,4.64
2023-02-19T11:01:34.487Z,4.48
2023-02-19T11:06:37.377Z,4.78
2023-02-19T11:11:41.856Z,4.15
2023-02-19T11:16:47.655Z,4.52
2023-02-19T11:21:51.194Z,4.90
2023-02-19T11:26:55.857Z,5.07
2023-02-19T11:32:25.504Z,4.64
2023-02-19T11:37:28.913Z,4.64
2023-02-19T11:42:45.242Z,4.55
2023-02-19T11:48:14.818Z,4.66
2023-02-19T11:53:26.048Z,4.51
2023-02-19T11:58:50.102Z,4.88
2023-02-19T12:04:22.730Z,4.84
2023-02-19T12:09:42.809Z,4.93
2023-02-19T12:14:58.077Z,4.56
2023-02-19T12:20:13.192Z,4.26
2023-02-19T12:25:47.870Z,5.04
2023-02-19T12:31:18.790Z,5.15
2023-02-19T12:36:29.074Z,5.56
2023-02-19T12:41:43.438Z,5.46
2023-02-19T12:46:50.713Z,6.15
2023-02-19T12:51:58.622Z,5.71
2023-02-19T12:57:04.361Z,6.08
2023-02-19T13:02:17.416Z,5.69
2023-02-19T13:07:25.074Z,5.91
2023-02-19T13:12:31.673Z,6.46
2023-02-19T13:17:42.482Z,6.53
2023-02-19T13:23:10.746Z,6.65
2023-02-19T13:28:27.930Z,6.12
2023-02-19T13:33:55.282Z,5.89
2023-02-19T13:39:00.491Z,5.80
2023-02-19T13:44:05.671Z,5.51
2023-02-19T13:49:44.907Z,5.47
2023-02-19T13:54:49.196Z,5.63
2023-02-19T13:59:52.999Z,5.46
2023-02-19T14:04:57.533Z,5.39
2023-02-19T14:10:02.216Z,6.06
2023-02-19T14:15:41.576Z,5.71
2023-02-19T14:20:46.826Z,5.56
2023-02-19T14:25:55.896Z,5.61
2023-02-19T14:31:01.751Z,5.40
2023-02-19T14:36:10.433Z,5.52
2023-02-19T14:41:17.139Z,5.82
2023-02-19T14:46:29.103Z,6.07
2023-02-19T14:51:36.111Z,5.63
2023-02-19T14:56:41.247Z,5.69
2023-02-19T15:01:44.229Z,5.65
2023-02-19T15:06:47.579Z,5.50
2023-02-19T15:11:51.913Z,5.75
2023-02-19T15:16:59.430Z,5.84
2023-02-19T15:22:02.929Z,5.52
2023-02-19T15:27:07.170Z,5.45
2023-02-19T15:32:19.009Z,5.36
2023-02-19T15:37:22.912Z,5.42
2023-02-19T15:42:30.296Z,5.52
2023-02-19T15:47:39.290Z,5.58
2023-02-19T15:52:49.326Z,5.33
2023-02-19T15:58:05.642Z,5.33
2023-02-19T16:03:16.687Z,5.24
2023-02-19T16:08:21.570Z,5.07
2023-02-19T16:13:28.324Z,5.05
2023-02-19T16:18:32.041Z,5.04
2023-02-19T16:23:35.065Z,4.85
2023-02-19T16:28:41.935Z,4.83
2023-02-19T16:33:48.212Z,4.72
2023-02-19T16:39:25.314Z,4.84
2023-02-19T16:44:36.605Z,4.61
2023-02-19T16:49:42.474Z,4.45
2023-02-19T16:54:46.930Z,4.39
2023-02-19T16:59:51.209Z,4.34
2023-02-19T17:04:55.829Z,4.36
2023-02-19T17:09:58.938Z,4.29
2023-02-19T17:15:03.198Z,4.39
2023-02-19T17:20:22.721Z,4.30
2023-02-19T17:25:25.789Z,4.16
2023-02-19T17:30:33.436Z,4.08
2023-02-19T17:35:36.485Z,4.06
2023-02-19T17:40:39.602Z,4.12
2023-02-19T17:45:44.025Z,3.97
2023-02-19T17:50:49.188Z,3.93
2023-02-19T17:55:52.143Z,4.00
2023-02-19T18:00:56.543Z,3.80
2023-02-19T18:05:59.422Z,3.83
2023-02-19T18:11:03.082Z,3.79
2023-02-19T18:16:08.340Z,3.69
2023-02-19T18:21:12.886Z,3.80
2023-02-19T18:26:21.996Z,3.67
2023-02-19T18:31:26.424Z,3.62
2023-02-19T18:36:29.369Z,3.43
2023-02-19T18:41:32.293Z,3.28
2023-02-19T18:46:36.582Z,3.55
2023-02-19T18:51:39.828Z,3.41
2023-02-19T18:56:44.186Z,3.51
2023-02-19T19:01:48.536Z,3.51
2023-02-19T19:06:51.615Z,2.99
2023-02-19T19:11:54.515Z,3.01
2023-02-19T19:16:58.999Z,2.96
2023-02-19T19:22:01.889Z,2.89
2023-02-19T19:27:04.957Z,2.66
2023-02-19T19:32:10.768Z,2.52
2023-02-19T19:37:13.795Z,2.76
2023-02-19T19:42:17.385Z,3.00
2023-02-19T19:47:21.870Z,3.03
2023-02-19T19:52:24.832Z,2.71
2023-02-19T19:57:27.732Z,2.33
2023-02-19T20:02:32.180Z,2.27
2023-02-19T20:07:35.165Z,2.13
2023-02-19T20:12:39.368Z,2.52
2023-02-19T20:17:43.662Z,2.32
2023-02-19T20:22:46.652Z,2.19
2023-02-19T20:27:49.658Z,2.13
2023-02-19T20:32:54.467Z,2.20
2023-02-19T20:37:57.711Z,2.26
2023-02-19T20:43:01.323Z,2.28
2023-02-19T20:48:05.628Z,2.36
2023-02-19T20:53:08.709Z,2.20
2023-02-19T20:58:11.664Z,2.29
2023-02-19T21:03:15.999Z,2.49
2023-02-19T21:08:18.885Z,2.50
2023-02-19T21:13:21.809Z,2.48
2023-02-19T21:18:26.073Z,2.43
2023-02-19T21:23:28.997Z,2.21
2023-02-19T21:28:31.874Z,2.35
2023-02-19T21:33:36.139Z,2.36
2023-02-19T21:38:39.195Z,2.27
2023-02-19T21:43:42.109Z,2.50
2023-02-19T21:48:48.653Z,2.62
2023-02-19T21:53:51.668Z,2.63
2023-02-19T21:58:54.754Z,2.55
2023-02-19T22:03:59.153Z,2.69
2023-02-19T22:09:02.239Z,2.74
2023-02-19T22:14:05.369Z,2.32
2023-02-19T22:19:11.989Z,2.41
2023-02-19T22:24:17.585Z,2.28
2023-02-19T22:29:20.536Z,2.53
2023-02-19T22:34:24.781Z,2.33
2023-02-19T22:39:28.306Z,2.35
2023-02-19T22:44:31.209Z,2.49
2023-02-19T22:49:38.830Z,2.35
2023-02-19T22:54:41.875Z,2.31
2023-02-19T22:59:44.800Z,2.50
2023-02-19T23:04:49.021Z,2.78
2023-02-19T23:09:53.018Z,2.84
2023-02-19T23:14:55.901Z,3.13
2023-02-19T23:20:00.199Z,2.89
2023-02-19T23:25:03.470Z,3.02
2023-02-19T23:30:07.775Z,3.09
2023-02-19T23:35:12.138Z,3.15
2023-02-19T23:40:15.631Z,3.20
2023-02-19T23:45:18.716Z,2.60
2023-02-19T23:50:23.162Z,2.34
2023-02-19T23:55:26.366Z,2.76
